sensor_id;sensor_type;location;lat;lon;timestamp;temperature;humidity
16846;DHT22;8539;53.188;8.696;2022-10-16T00:01:30;13.00;99.90
16846;DHT22;8539;53.188;8.696;2022-10-16T00:03:59;13.00;99.90
16846;DHT22;8539;53.188;8.696;2022-10-16T00:06:27;13.00;99.90
16846;DHT22;8539;53.188;8.696;2022-10-16T00:08:53;13.00;99.90
16846;DHT22;8539;53.188;8.696;2022-10-16T00:11:21;12.90;99.90
16846;DHT22;8539;53.188;8.696;2022-10-16T00:13:50;12.90;99.90
16846;DHT22;8539;53.188;8.696;2022-10-16T00:16:17;12.90;99.90
16846;DHT22;8539;53.188;8.696;2022-10-16T00:18:43;12.90;99.90
16846;DHT22;8539;53.188;8.696;2022-10-16T00:21:19;12.90;99.90
16846;DHT22;8539;53.188;8.696;2022-10-16T00:23:45;12.80;99.90
16846;DHT22;8539;53.188;8.696;2022-10-16T00:26:16;12.80;99.90
16846;DHT22;8539;53.188;8.696;2022-10-16T00:28:46;12.80;99.90
16846;DHT22;8539;53.188;8.696;2022-10-16T00:31:12;12.80;99.90
16846;DHT22;8539;53.188;8.696;2022-10-16T00:33:39;12.80;99.90
16846;DHT22;8539;53.188;8.696;2022-10-16T00:36:07;12.80;99.90
16846;DHT22;8539;53.188;8.696;2022-10-16T00:38:35;12.80;99.90
16846;DHT22;8539;53.188;8.696;2022-10-16T00:41:01;12.80;99.90
16846;DHT22;8539;53.188;8.696;2022-10-16T00:46:16;12.70;99.90
16846;DHT22;8539;53.188;8.696;2022-10-16T00:51:42;12.70;99.90
16846;DHT22;8539;53.188;8.696;2022-10-16T00:54:19;12.60;99.90
16846;DHT22;8539;53.188;8.696;2022-10-16T00:56:47;12.60;99.90
16846;DHT22;8539;53.188;8.696;2022-10-16T00:59:20;12.60;99.90
16846;DHT22;8539;53.188;8.696;2022-10-16T01:01:47;12.60;99.90
16846;DHT22;8539;53.188;8.696;2022-10-16T01:04:21;12.50;99.90
16846;DHT22;8539;53.188;8.696;2022-10-16T01:06:54;12.50;99.90
16846;DHT22;8539;53.188;8.696;2022-10-16T01:09:31;12.50;99.90
16846;DHT22;8539;53.188;8.696;2022-10-16T01:12:12;12.50;99.90
16846;DHT22;8539;53.188;8.696;2022-10-16T01:14:48;12.50;99.90
16846;DHT22;8539;53.188;8.696;2022-10-16T01:17:24;12.50;99.90
16846;DHT22;8539;53.188;8.696;2022-10-16T01:20:30;12.50;99.90
16846;DHT22;8539;53.188;8.696;2022-10-16T01:28:49;12.40;99.90
16846;DHT22;8539;53.188;8.696;2022-10-16T01:31:19;12.40;99.90
16846;DHT22;8539;53.188;8.696;2022-10-16T01:34:05;12.30;99.90
16846;DHT22;8539;53.188;8.696;2022-10-16T01:36:41;12.30;99.90
16846;DHT22;8539;53.188;8.696;2022-10-16T01:39:10;12.30;99.90
16846;DHT22;8539;53.188;8.696;2022-10-16T01:41:43;12.30;99.90
16846;DHT22;8539;53.188;8.696;2022-10-16T01:44:11;12.30;99.90
16846;DHT22;8539;53.188;8.696;2022-10-16T01:46:42;12.30;99.90
16846;DHT22;8539;53.188;8.696;2022-10-16T01:49:10;12.30;99.90
16846;DHT22;8539;53.188;8.696;2022-10-16T01:51:38;12.30;99.90
16846;DHT22;8539;53.188;8.696;2022-10-16T01:54:07;12.30;99.90
16846;DHT22;8539;53.188;8.696;2022-10-16T01:56:35;12.30;99.90
16846;DHT22;8539;53.188;8.696;2022-10-16T01:59:11;12.30;99.90
16846;DHT22;8539;53.188;8.696;2022-10-16T02:01:41;12.30;99.90
16846;DHT22;8539;53.188;8.696;2022-10-16T02:04:20;12.30;99.90
16846;DHT22;8539;53.188;8.696;2022-10-16T02:06:47;12.30;99.90
16846;DHT22;8539;53.188;8.696;2022-10-16T02:09:13;12.30;99.90
16846;DHT22;8539;53.188;8.696;2022-10-16T02:11:43;12.30;99.90
16846;DHT22;8539;53.188;8.696;2022-10-16T02:14:10;12.30;99.90
16846;DHT22;8539;53.188;8.696;2022-10-16T02:16:44;12.30;99.90
16846;DHT22;8539;53.188;8.696;2022-10-16T02:19:12;12.30;99.90
16846;DHT22;8539;53.188;8.696;2022-10-16T02:22:01;12.30;99.90
16846;DHT22;8539;53.188;8.696;2022-10-16T02:24:43;12.30;99.90
16846;DHT22;8539;53.188;8.696;2022-10-16T02:27:33;12.30;99.90
16846;DHT22;8539;53.188;8.696;2022-10-16T02:32:55;12.30;99.90
16846;DHT22;8539;53.188;8.696;2022-10-16T02:35:23;12.30;99.90
16846;DHT22;8539;53.188;8.696;2022-10-16T02:37:51;12.30;99.90
16846;DHT22;8539;53.188;8.696;2022-10-16T02:40:18;12.30;99.90
16846;DHT22;8539;53.188;8.696;2022-10-16T02:42:44;12.20;99.90
16846;DHT22;8539;53.188;8.696;2022-10-16T02:45:15;12.20;99.90
16846;DHT22;8539;53.188;8.696;2022-10-16T02:47:41;12.20;99.90
16846;DHT22;8539;53.188;8.696;2022-10-16T02:50:07;12.30;99.90
16846;DHT22;8539;53.188;8.696;2022-10-16T02:52:34;12.20;99.90
16846;DHT22;8539;53.188;8.696;2022-10-16T02:55:01;12.30;99.90
16846;DHT22;8539;53.188;8.696;2022-10-16T02:57:28;12.30;99.90
16846;DHT22;8539;53.188;8.696;2022-10-16T02:59:56;12.30;99.90
16846;DHT22;8539;53.188;8.696;2022-10-16T03:02:23;12.30;99.90
16846;DHT22;8539;53.188;8.696;2022-10-16T03:04:49;12.30;99.90
16846;DHT22;8539;53.188;8.696;2022-10-16T03:07:16;12.30;99.90
16846;DHT22;8539;53.188;8.696;2022-10-16T03:09:42;12.30;99.90
16846;DHT22;8539;53.188;8.696;2022-10-16T03:12:08;12.30;99.90
16846;DHT22;8539;53.188;8.696;2022-10-16T03:14:35;12.30;99.90
16846;DHT22;8539;53.188;8.696;2022-10-16T03:17:01;12.30;99.90
16846;DHT22;8539;53.188;8.696;2022-10-16T03:19:27;12.30;99.90
16846;DHT22;8539;53.188;8.696;2022-10-16T03:21:53;12.30;99.90
16846;DHT22;8539;53.188;8.696;2022-10-16T03:24:19;12.30;99.90
16846;DHT22;8539;53.188;8.696;2022-10-16T03:26:46;12.40;99.90
16846;DHT22;8539;53.188;8.696;2022-10-16T03:29:12;12.40;99.90
16846;DHT22;8539;53.188;8.696;2022-10-16T03:31:38;12.40;99.90
16846;DHT22;8539;53.188;8.696;2022-10-16T03:34:05;12.40;99.90
16846;DHT22;8539;53.188;8.696;2022-10-16T03:36:31;12.40;99.90
16846;DHT22;8539;53.188;8.696;2022-10-16T03:38:57;12.40;99.90
16846;DHT22;8539;53.188;8.696;2022-10-16T03:41:23;12.40;99.90
16846;DHT22;8539;53.188;8.696;2022-10-16T03:43:50;12.40;99.90
16846;DHT22;8539;53.188;8.696;2022-10-16T03:46:17;12.40;99.90
16846;DHT22;8539;53.188;8.696;2022-10-16T03:48:43;12.40;99.90
16846;DHT22;8539;53.188;8.696;2022-10-16T03:51:10;12.50;99.90
16846;DHT22;8539;53.188;8.696;2022-10-16T03:53:36;12.40;99.90
16846;DHT22;8539;53.188;8.696;2022-10-16T03:56:03;12.40;99.90
16846;DHT22;8539;53.188;8.696;2022-10-16T03:58:30;12.40;99.90
16846;DHT22;8539;53.188;8.696;2022-10-16T04:00:56;12.40;99.90
16846;DHT22;8539;53.188;8.696;2022-10-16T04:03:23;12.40;99.90
16846;DHT22;8539;53.188;8.696;2022-10-16T04:05:50;12.40;99.90
16846;DHT22;8539;53.188;8.696;2022-10-16T04:08:16;12.40;99.90
16846;DHT22;8539;53.188;8.696;2022-10-16T04:10:43;12.40;99.90
16846;DHT22;8539;53.188;8.696;2022-10-16T04:13:10;12.40;99.90
16846;DHT22;8539;53.188;8.696;2022-10-16T04:15:36;12.40;99.90
16846;DHT22;8539;53.188;8.696;2022-10-16T04:18:03;12.40;99.90
16846;DHT22;8539;53.188;8.696;2022-10-16T04:20:29;12.40;99.90
16846;DHT22;8539;53.188;8.696;2022-10-16T04:22:56;12.40;99.90
16846;DHT22;8539;53.188;8.696;2022-10-16T04:25:22;12.40;99.90
16846;DHT22;8539;53.188;8.696;2022-10-16T04:27:48;12.50;99.90
16846;DHT22;8539;53.188;8.696;2022-10-16T04:30:14;12.50;99.90
16846;DHT22;8539;53.188;8.696;2022-10-16T04:32:49;12.50;99.90
16846;DHT22;8539;53.188;8.696;2022-10-16T04:35:17;12.50;99.90
16846;DHT22;8539;53.188;8.696;2022-10-16T04:37:48;12.60;99.90
16846;DHT22;8539;53.188;8.696;2022-10-16T04:40:20;12.60;99.90
16846;DHT22;8539;53.188;8.696;2022-10-16T04:42:59;12.60;99.90
16846;DHT22;8539;53.188;8.696;2022-10-16T04:45:26;12.60;99.90
16846;DHT22;8539;53.188;8.696;2022-10-16T04:47:59;12.60;99.90
16846;DHT22;8539;53.188;8.696;2022-10-16T04:50:26;12.60;99.90
16846;DHT22;8539;53.188;8.696;2022-10-16T04:52:52;12.60;99.90
16846;DHT22;8539;53.188;8.696;2022-10-16T04:55:19;12.60;99.90
16846;DHT22;8539;53.188;8.696;2022-10-16T04:57:46;12.60;99.90
16846;DHT22;8539;53.188;8.696;2022-10-16T05:00:12;12.70;99.90
16846;DHT22;8539;53.188;8.696;2022-10-16T05:02:50;12.60;99.90
16846;DHT22;8539;53.188;8.696;2022-10-16T05:05:17;11.60;99.90
16846;DHT22;8539;53.188;8.696;2022-10-16T05:07:48;12.70;99.90
16846;DHT22;8539;53.188;8.696;2022-10-16T05:10:16;12.70;99.90
16846;DHT22;8539;53.188;8.696;2022-10-16T05:12:51;12.80;99.90
16846;DHT22;8539;53.188;8.696;2022-10-16T05:15:18;12.80;99.90
16846;DHT22;8539;53.188;8.696;2022-10-16T05:17:45;12.80;99.90
16846;DHT22;8539;53.188;8.696;2022-10-16T05:20:12;12.80;99.90
16846;DHT22;8539;53.188;8.696;2022-10-16T05:22:38;12.90;99.90
16846;DHT22;8539;53.188;8.696;2022-10-16T05:25:06;12.80;99.90
16846;DHT22;8539;53.188;8.696;2022-10-16T05:27:32;12.90;99.90
16846;DHT22;8539;53.188;8.696;2022-10-16T05:29:58;12.90;99.90
16846;DHT22;8539;53.188;8.696;2022-10-16T05:32:25;12.90;99.90
16846;DHT22;8539;53.188;8.696;2022-10-16T05:34:52;12.90;99.90
16846;DHT22;8539;53.188;8.696;2022-10-16T05:37:20;12.90;99.90
16846;DHT22;8539;53.188;8.696;2022-10-16T05:39:46;12.90;99.90
16846;DHT22;8539;53.188;8.696;2022-10-16T05:42:12;12.90;99.90
16846;DHT22;8539;53.188;8.696;2022-10-16T05:44:38;12.90;99.90
16846;DHT22;8539;53.188;8.696;2022-10-16T05:47:05;12.90;99.90
16846;DHT22;8539;53.188;8.696;2022-10-16T05:49:34;12.90;99.90
16846;DHT22;8539;53.188;8.696;2022-10-16T05:52:00;12.90;99.90
16846;DHT22;8539;53.188;8.696;2022-10-16T05:54:27;12.80;99.90
16846;DHT22;8539;53.188;8.696;2022-10-16T05:56:53;12.80;99.90
16846;DHT22;8539;53.188;8.696;2022-10-16T05:59:20;12.80;99.90
16846;DHT22;8539;53.188;8.696;2022-10-16T06:01:46;12.80;99.90
16846;DHT22;8539;53.188;8.696;2022-10-16T06:04:12;12.80;99.90
16846;DHT22;8539;53.188;8.696;2022-10-16T06:06:38;12.80;99.90
16846;DHT22;8539;53.188;8.696;2022-10-16T06:09:05;12.80;99.90
16846;DHT22;8539;53.188;8.696;2022-10-16T06:11:33;12.80;99.90
16846;DHT22;8539;53.188;8.696;2022-10-16T06:14:01;12.80;99.90
16846;DHT22;8539;53.188;8.696;2022-10-16T06:16:29;12.80;99.90
16846;DHT22;8539;53.188;8.696;2022-10-16T06:18:55;12.80;99.90
16846;DHT22;8539;53.188;8.696;2022-10-16T06:21:24;12.90;99.90
16846;DHT22;8539;53.188;8.696;2022-10-16T06:23:54;12.60;99.90
16846;DHT22;8539;53.188;8.696;2022-10-16T06:26:25;12.90;99.90
16846;DHT22;8539;53.188;8.696;2022-10-16T06:28:53;12.80;99.90
16846;DHT22;8539;53.188;8.696;2022-10-16T06:31:20;12.80;99.90
16846;DHT22;8539;53.188;8.696;2022-10-16T06:33:50;12.90;99.90
16846;DHT22;8539;53.188;8.696;2022-10-16T06:36:17;12.90;99.90
16846;DHT22;8539;53.188;8.696;2022-10-16T06:38:44;12.80;99.90
16846;DHT22;8539;53.188;8.696;2022-10-16T06:41:13;12.80;99.90
16846;DHT22;8539;53.188;8.696;2022-10-16T06:43:42;12.80;99.90
16846;DHT22;8539;53.188;8.696;2022-10-16T06:46:12;12.80;99.90
16846;DHT22;8539;53.188;8.696;2022-10-16T06:48:38;12.80;99.90
16846;DHT22;8539;53.188;8.696;2022-10-16T06:51:11;12.80;99.90
16846;DHT22;8539;53.188;8.696;2022-10-16T06:53:42;12.80;99.90
16846;DHT22;8539;53.188;8.696;2022-10-16T06:56:23;12.80;99.90
16846;DHT22;8539;53.188;8.696;2022-10-16T06:58:50;12.80;99.90
16846;DHT22;8539;53.188;8.696;2022-10-16T07:01:20;12.80;99.90
16846;DHT22;8539;53.188;8.696;2022-10-16T07:03:47;12.80;99.90
16846;DHT22;8539;53.188;8.696;2022-10-16T07:06:16;12.90;99.90
16846;DHT22;8539;53.188;8.696;2022-10-16T07:08:45;12.90;99.90
16846;DHT22;8539;53.188;8.696;2022-10-16T07:11:14;13.00;99.90
16846;DHT22;8539;53.188;8.696;2022-10-16T07:13:42;13.00;99.90
16846;DHT22;8539;53.188;8.696;2022-10-16T07:16:11;13.00;99.90
16846;DHT22;8539;53.188;8.696;2022-10-16T07:18:38;13.10;99.90
16846;DHT22;8539;53.188;8.696;2022-10-16T07:21:10;13.20;99.90
16846;DHT22;8539;53.188;8.696;2022-10-16T07:23:37;13.20;99.90
16846;DHT22;8539;53.188;8.696;2022-10-16T07:26:04;13.20;99.90
16846;DHT22;8539;53.188;8.696;2022-10-16T07:28:32;13.20;99.90
16846;DHT22;8539;53.188;8.696;2022-10-16T07:31:06;13.20;99.90
16846;DHT22;8539;53.188;8.696;2022-10-16T07:33:34;13.20;99.90
16846;DHT22;8539;53.188;8.696;2022-10-16T07:36:01;13.30;99.90
16846;DHT22;8539;53.188;8.696;2022-10-16T07:38:27;13.20;99.90
16846;DHT22;8539;53.188;8.696;2022-10-16T07:41:04;13.20;99.90
16846;DHT22;8539;53.188;8.696;2022-10-16T07:43:31;13.20;99.90
16846;DHT22;8539;53.188;8.696;2022-10-16T07:45:58;13.20;99.90
16846;DHT22;8539;53.188;8.696;2022-10-16T07:48:28;13.20;99.90
16846;DHT22;8539;53.188;8.696;2022-10-16T07:51:02;13.30;99.90
16846;DHT22;8539;53.188;8.696;2022-10-16T07:53:29;13.30;99.90
16846;DHT22;8539;53.188;8.696;2022-10-16T07:56:06;13.90;99.90
16846;DHT22;8539;53.188;8.696;2022-10-16T07:58:34;13.40;99.90
16846;DHT22;8539;53.188;8.696;2022-10-16T08:01:06;13.50;99.90
16846;DHT22;8539;53.188;8.696;2022-10-16T08:03:32;13.60;99.90
16846;DHT22;8539;53.188;8.696;2022-10-16T08:06:02;13.60;99.90
16846;DHT22;8539;53.188;8.696;2022-10-16T08:08:29;13.70;99.90
16846;DHT22;8539;53.188;8.696;2022-10-16T08:10:56;13.70;99.90
16846;DHT22;8539;53.188;8.696;2022-10-16T08:13:22;13.80;99.90
16846;DHT22;8539;53.188;8.696;2022-10-16T08:15:49;13.80;99.90
16846;DHT22;8539;53.188;8.696;2022-10-16T08:18:15;13.90;99.90
16846;DHT22;8539;53.188;8.696;2022-10-16T08:20:42;13.90;99.90
16846;DHT22;8539;53.188;8.696;2022-10-16T08:23:10;14.00;99.90
16846;DHT22;8539;53.188;8.696;2022-10-16T08:25:37;14.00;99.90
16846;DHT22;8539;53.188;8.696;2022-10-16T08:28:05;14.10;99.90
16846;DHT22;8539;53.188;8.696;2022-10-16T08:30:31;14.10;99.90
16846;DHT22;8539;53.188;8.696;2022-10-16T08:32:58;14.10;99.90
16846;DHT22;8539;53.188;8.696;2022-10-16T08:35:24;14.20;99.90
16846;DHT22;8539;53.188;8.696;2022-10-16T08:37:50;14.20;99.90
16846;DHT22;8539;53.188;8.696;2022-10-16T08:40:29;14.30;99.90
16846;DHT22;8539;53.188;8.696;2022-10-16T08:46:18;14.50;99.90
16846;DHT22;8539;53.188;8.696;2022-10-16T08:48:50;14.70;99.90
16846;DHT22;8539;53.188;8.696;2022-10-16T08:51:22;14.90;99.90
16846;DHT22;8539;53.188;8.696;2022-10-16T08:54:21;15.10;99.90
16846;DHT22;8539;53.188;8.696;2022-10-16T08:56:49;15.30;99.90
16846;DHT22;8539;53.188;8.696;2022-10-16T08:59:16;15.50;99.90
16846;DHT22;8539;53.188;8.696;2022-10-16T09:01:48;15.80;99.90
16846;DHT22;8539;53.188;8.696;2022-10-16T09:10:56;16.80;99.90
16846;DHT22;8539;53.188;8.696;2022-10-16T09:13:48;17.30;99.90
16846;DHT22;8539;53.188;8.696;2022-10-16T09:16:19;17.20;99.90
16846;DHT22;8539;53.188;8.696;2022-10-16T09:19:12;17.00;99.90
16846;DHT22;8539;53.188;8.696;2022-10-16T09:21:43;17.00;99.90
16846;DHT22;8539;53.188;8.696;2022-10-16T09:24:21;16.80;99.90
16846;DHT22;8539;53.188;8.696;2022-10-16T09:26:47;16.60;99.90
16846;DHT22;8539;53.188;8.696;2022-10-16T09:29:18;16.50;99.90
16846;DHT22;8539;53.188;8.696;2022-10-16T09:31:52;16.40;99.90
16846;DHT22;8539;53.188;8.696;2022-10-16T09:34:30;16.20;99.90
16846;DHT22;8539;53.188;8.696;2022-10-16T09:36:58;16.20;99.90
16846;DHT22;8539;53.188;8.696;2022-10-16T09:39:25;16.10;99.90
16846;DHT22;8539;53.188;8.696;2022-10-16T09:41:52;16.20;99.90
16846;DHT22;8539;53.188;8.696;2022-10-16T09:44:28;16.30;99.90
16846;DHT22;8539;53.188;8.696;2022-10-16T09:47:10;16.40;99.90
16846;DHT22;8539;53.188;8.696;2022-10-16T09:49:38;16.40;99.90
16846;DHT22;8539;53.188;8.696;2022-10-16T09:52:09;16.40;99.90
16846;DHT22;8539;53.188;8.696;2022-10-16T09:54:37;16.40;99.90
16846;DHT22;8539;53.188;8.696;2022-10-16T09:57:07;16.70;99.90
16846;DHT22;8539;53.188;8.696;2022-10-16T09:59:45;17.10;99.90
16846;DHT22;8539;53.188;8.696;2022-10-16T10:02:15;17.20;99.90
16846;DHT22;8539;53.188;8.696;2022-10-16T10:04:51;17.10;99.90
16846;DHT22;8539;53.188;8.696;2022-10-16T10:07:24;17.00;99.90
16846;DHT22;8539;53.188;8.696;2022-10-16T10:09:51;17.00;99.90
16846;DHT22;8539;53.188;8.696;2022-10-16T10:12:23;16.90;99.90
16846;DHT22;8539;53.188;8.696;2022-10-16T10:14:51;16.80;99.90
16846;DHT22;8539;53.188;8.696;2022-10-16T10:17:22;16.80;99.90
16846;DHT22;8539;53.188;8.696;2022-10-16T10:19:57;16.70;99.90
16846;DHT22;8539;53.188;8.696;2022-10-16T10:39:12;16.70;99.90
16846;DHT22;8539;53.188;8.696;2022-10-16T10:45:16;16.80;99.90
16846;DHT22;8539;53.188;8.696;2022-10-16T10:51:04;16.90;99.90
16846;DHT22;8539;53.188;8.696;2022-10-16T10:54:07;16.90;99.90
16846;DHT22;8539;53.188;8.696;2022-10-16T11:02:44;16.90;99.90
16846;DHT22;8539;53.188;8.696;2022-10-16T11:05:44;16.90;99.90
16846;DHT22;8539;53.188;8.696;2022-10-16T11:08:50;17.00;99.90
16846;DHT22;8539;53.188;8.696;2022-10-16T11:16:43;17.30;99.90
16846;DHT22;8539;53.188;8.696;2022-10-16T11:22:16;17.50;99.90
16846;DHT22;8539;53.188;8.696;2022-10-16T11:24:55;17.60;99.90
16846;DHT22;8539;53.188;8.696;2022-10-16T11:28:23;17.80;99.90
16846;DHT22;8539;53.188;8.696;2022-10-16T11:31:02;17.80;99.90
16846;DHT22;8539;53.188;8.696;2022-10-16T11:33:49;18.00;99.90
16846;DHT22;8539;53.188;8.696;2022-10-16T11:42:16;18.00;99.90
16846;DHT22;8539;53.188;8.696;2022-10-16T11:45:28;18.00;99.90
16846;DHT22;8539;53.188;8.696;2022-10-16T11:48:02;18.00;99.90
16846;DHT22;8539;53.188;8.696;2022-10-16T11:56:29;18.20;99.90
16846;DHT22;8539;53.188;8.696;2022-10-16T11:59:10;18.30;99.90
16846;DHT22;8539;53.188;8.696;2022-10-16T12:02:19;18.50;99.90
16846;DHT22;8539;53.188;8.696;2022-10-16T12:04:54;18.60;99.90
16846;DHT22;8539;53.188;8.696;2022-10-16T12:07:37;18.50;99.90
16846;DHT22;8539;53.188;8.696;2022-10-16T12:10:26;18.40;99.90
16846;DHT22;8539;53.188;8.696;2022-10-16T12:12:54;18.20;99.90
16846;DHT22;8539;53.188;8.696;2022-10-16T12:15:34;18.00;99.90
16846;DHT22;8539;53.188;8.696;2022-10-16T12:18:00;17.80;99.90
16846;DHT22;8539;53.188;8.696;2022-10-16T12:20:37;17.70;99.90
16846;DHT22;8539;53.188;8.696;2022-10-16T12:23:20;17.50;99.90
16846;DHT22;8539;53.188;8.696;2022-10-16T12:25:55;17.40;99.90
16846;DHT22;8539;53.188;8.696;2022-10-16T12:28:27;17.30;99.90
16846;DHT22;8539;53.188;8.696;2022-10-16T12:31:01;17.20;99.90
16846;DHT22;8539;53.188;8.696;2022-10-16T12:33:37;17.20;99.90
16846;DHT22;8539;53.188;8.696;2022-10-16T12:36:15;17.20;99.90
16846;DHT22;8539;53.188;8.696;2022-10-16T12:38:52;17.20;99.90
16846;DHT22;8539;53.188;8.696;2022-10-16T12:41:44;17.40;99.90
16846;DHT22;8539;53.188;8.696;2022-10-16T12:44:23;17.60;99.90
16846;DHT22;8539;53.188;8.696;2022-10-16T12:46:49;17.90;99.90
16846;DHT22;8539;53.188;8.696;2022-10-16T12:49:37;18.20;99.90
16846;DHT22;8539;53.188;8.696;2022-10-16T12:54:57;18.70;99.90
16846;DHT22;8539;53.188;8.696;2022-10-16T12:57:45;18.80;99.90
16846;DHT22;8539;53.188;8.696;2022-10-16T13:06:42;18.40;99.90
16846;DHT22;8539;53.188;8.696;2022-10-16T13:09:02;18.20;99.90
16846;DHT22;8539;53.188;8.696;2022-10-16T13:14:24;18.00;99.90
16846;DHT22;8539;53.188;8.696;2022-10-16T13:17:15;18.20;99.90
16846;DHT22;8539;53.188;8.696;2022-10-16T13:27:56;18.80;99.90
16846;DHT22;8539;53.188;8.696;2022-10-16T13:30:28;19.00;99.90
16846;DHT22;8539;53.188;8.696;2022-10-16T13:36:29;19.00;99.90
16846;DHT22;8539;53.188;8.696;2022-10-16T13:39:23;19.00;99.90
16846;DHT22;8539;53.188;8.696;2022-10-16T13:42:18;19.00;99.90
16846;DHT22;8539;53.188;8.696;2022-10-16T13:44:51;19.10;99.90
16846;DHT22;8539;53.188;8.696;2022-10-16T13:47:25;19.20;99.90
16846;DHT22;8539;53.188;8.696;2022-10-16T13:50:04;19.30;99.90
16846;DHT22;8539;53.188;8.696;2022-10-16T13:52:34;19.40;99.90
16846;DHT22;8539;53.188;8.696;2022-10-16T13:55:00;19.30;99.90
16846;DHT22;8539;53.188;8.696;2022-10-16T13:57:26;19.30;99.90
16846;DHT22;8539;53.188;8.696;2022-10-16T13:59:53;19.30;99.90
16846;DHT22;8539;53.188;8.696;2022-10-16T14:04:49;19.20;99.90
16846;DHT22;8539;53.188;8.696;2022-10-16T14:07:28;19.20;99.90
16846;DHT22;8539;53.188;8.696;2022-10-16T14:09:55;19.30;99.90
16846;DHT22;8539;53.188;8.696;2022-10-16T14:12:23;19.20;99.90
16846;DHT22;8539;53.188;8.696;2022-10-16T14:14:52;19.00;99.90
16846;DHT22;8539;53.188;8.696;2022-10-16T14:17:32;19.00;99.90
16846;DHT22;8539;53.188;8.696;2022-10-16T14:20:00;19.20;99.90
16846;DHT22;8539;53.188;8.696;2022-10-16T14:24:56;18.90;99.90
16846;DHT22;8539;53.188;8.696;2022-10-16T14:27:33;18.80;99.90
16846;DHT22;8539;53.188;8.696;2022-10-16T14:32:40;18.80;99.90
16846;DHT22;8539;53.188;8.696;2022-10-16T14:35:27;18.80;99.90
16846;DHT22;8539;53.188;8.696;2022-10-16T14:37:55;18.80;99.90
16846;DHT22;8539;53.188;8.696;2022-10-16T14:40:27;18.80;99.90
16846;DHT22;8539;53.188;8.696;2022-10-16T14:42:53;18.70;99.90
16846;DHT22;8539;53.188;8.696;2022-10-16T14:45:22;18.90;99.90
16846;DHT22;8539;53.188;8.696;2022-10-16T14:47:52;18.90;99.90
16846;DHT22;8539;53.188;8.696;2022-10-16T14:50:19;19.00;99.90
16846;DHT22;8539;53.188;8.696;2022-10-16T14:52:45;19.10;99.90
16846;DHT22;8539;53.188;8.696;2022-10-16T14:55:11;19.00;99.90
16846;DHT22;8539;53.188;8.696;2022-10-16T14:57:38;19.00;99.90
16846;DHT22;8539;53.188;8.696;2022-10-16T15:00:25;19.00;99.90
16846;DHT22;8539;53.188;8.696;2022-10-16T15:02:51;18.90;99.90
16846;DHT22;8539;53.188;8.696;2022-10-16T15:05:26;18.90;99.90
16846;DHT22;8539;53.188;8.696;2022-10-16T15:07:53;19.00;99.90
16846;DHT22;8539;53.188;8.696;2022-10-16T15:10:21;18.90;99.90
16846;DHT22;8539;53.188;8.696;2022-10-16T15:12:48;18.90;99.90
16846;DHT22;8539;53.188;8.696;2022-10-16T15:17:54;18.60;99.90
16846;DHT22;8539;53.188;8.696;2022-10-16T15:20:24;18.50;99.90
16846;DHT22;8539;53.188;8.696;2022-10-16T15:22:52;18.40;99.90
16846;DHT22;8539;53.188;8.696;2022-10-16T15:25:41;18.30;99.90
16846;DHT22;8539;53.188;8.696;2022-10-16T15:28:08;18.20;99.90
16846;DHT22;8539;53.188;8.696;2022-10-16T15:30:35;18.10;99.90
16846;DHT22;8539;53.188;8.696;2022-10-16T15:33:03;18.00;99.90
16846;DHT22;8539;53.188;8.696;2022-10-16T15:35:30;17.90;99.90
16846;DHT22;8539;53.188;8.696;2022-10-16T15:38:29;17.80;99.90
16846;DHT22;8539;53.188;8.696;2022-10-16T15:41:22;17.70;99.90
16846;DHT22;8539;53.188;8.696;2022-10-16T15:43:51;17.60;99.90
16846;DHT22;8539;53.188;8.696;2022-10-16T15:46:46;17.40;99.90
16846;DHT22;8539;53.188;8.696;2022-10-16T15:49:38;17.30;99.90
16846;DHT22;8539;53.188;8.696;2022-10-16T15:52:26;17.20;99.90
16846;DHT22;8539;53.188;8.696;2022-10-16T15:54:57;17.00;99.90
16846;DHT22;8539;53.188;8.696;2022-10-16T15:57:45;16.90;99.90
16846;DHT22;8539;53.188;8.696;2022-10-16T16:00:16;16.90;99.90
16846;DHT22;8539;53.188;8.696;2022-10-16T16:02:44;16.80;99.90
16846;DHT22;8539;53.188;8.696;2022-10-16T16:05:15;16.70;99.90
16846;DHT22;8539;53.188;8.696;2022-10-16T16:07:42;16.60;99.90
16846;DHT22;8539;53.188;8.696;2022-10-16T16:10:10;16.60;99.90
16846;DHT22;8539;53.188;8.696;2022-10-16T16:12:37;16.50;99.90
16846;DHT22;8539;53.188;8.696;2022-10-16T16:15:05;16.40;99.90
16846;DHT22;8539;53.188;8.696;2022-10-16T16:17:32;16.20;99.90
16846;DHT22;8539;53.188;8.696;2022-10-16T16:19:58;16.10;99.90
16846;DHT22;8539;53.188;8.696;2022-10-16T16:22:24;15.90;99.90
16846;DHT22;8539;53.188;8.696;2022-10-16T16:24:51;15.80;99.90
16846;DHT22;8539;53.188;8.696;2022-10-16T16:27:17;15.60;99.90
16846;DHT22;8539;53.188;8.696;2022-10-16T16:29:43;15.40;99.90
16846;DHT22;8539;53.188;8.696;2022-10-16T16:32:09;15.20;99.90
16846;DHT22;8539;53.188;8.696;2022-10-16T16:34:35;15.10;99.90
16846;DHT22;8539;53.188;8.696;2022-10-16T16:37:01;14.90;99.90
16846;DHT22;8539;53.188;8.696;2022-10-16T16:39:27;14.70;99.90
16846;DHT22;8539;53.188;8.696;2022-10-16T16:41:55;14.60;99.90
16846;DHT22;8539;53.188;8.696;2022-10-16T16:44:22;14.40;99.90
16846;DHT22;8539;53.188;8.696;2022-10-16T16:46:48;14.30;99.90
16846;DHT22;8539;53.188;8.696;2022-10-16T16:49:14;14.20;99.90
16846;DHT22;8539;53.188;8.696;2022-10-16T16:51:41;14.10;99.90
16846;DHT22;8539;53.188;8.696;2022-10-16T16:54:09;14.00;99.90
16846;DHT22;8539;53.188;8.696;2022-10-16T16:56:35;13.90;99.90
16846;DHT22;8539;53.188;8.696;2022-10-16T16:59:05;13.80;99.90
16846;DHT22;8539;53.188;8.696;2022-10-16T17:01:31;13.70;99.90
16846;DHT22;8539;53.188;8.696;2022-10-16T17:03:58;13.60;99.90
16846;DHT22;8539;53.188;8.696;2022-10-16T17:06:27;13.40;99.90
16846;DHT22;8539;53.188;8.696;2022-10-16T17:08:53;13.30;99.90
16846;DHT22;8539;53.188;8.696;2022-10-16T17:11:22;13.20;99.90
16846;DHT22;8539;53.188;8.696;2022-10-16T17:13:49;13.10;99.90
16846;DHT22;8539;53.188;8.696;2022-10-16T17:16:16;13.00;99.90
16846;DHT22;8539;53.188;8.696;2022-10-16T17:18:42;12.90;99.90
16846;DHT22;8539;53.188;8.696;2022-10-16T17:21:09;12.90;99.90
16846;DHT22;8539;53.188;8.696;2022-10-16T17:23:36;12.80;99.90
16846;DHT22;8539;53.188;8.696;2022-10-16T17:26:16;12.70;99.90
16846;DHT22;8539;53.188;8.696;2022-10-16T17:28:43;12.60;99.90
16846;DHT22;8539;53.188;8.696;2022-10-16T17:31:15;12.60;99.90
16846;DHT22;8539;53.188;8.696;2022-10-16T17:33:42;12.50;99.90
16846;DHT22;8539;53.188;8.696;2022-10-16T17:36:09;12.40;99.90
16846;DHT22;8539;53.188;8.696;2022-10-16T17:38:36;12.30;99.90
16846;DHT22;8539;53.188;8.696;2022-10-16T17:43:38;12.20;99.90
16846;DHT22;8539;53.188;8.696;2022-10-16T17:46:05;12.10;99.90
16846;DHT22;8539;53.188;8.696;2022-10-16T17:48:40;12.10;99.90
16846;DHT22;8539;53.188;8.696;2022-10-16T17:51:09;12.00;99.90
16846;DHT22;8539;53.188;8.696;2022-10-16T17:53:36;12.00;99.90
16846;DHT22;8539;53.188;8.696;2022-10-16T17:56:07;12.20;99.90
16846;DHT22;8539;53.188;8.696;2022-10-16T17:58:37;11.90;99.90
16846;DHT22;8539;53.188;8.696;2022-10-16T18:03:38;11.80;99.90